Time;durP1;ratioP1;P1;durP2;ratioP2;P2;SDS_P1;SDS_P2;PMS_P1;PMS_P2;Temp;Humidity;BMP_temperature;BMP_pressure;BME280_temperature;BME280_humidity;BME280_pressure;Samples;Min_cycle;Max_cycle;Signal;HPM_P1;HPM_P2
2021/12/25 00:02:21;;;;;;;;;43.25;36.00;;;;;11.54;79.51;99740.16;5094903;27;46342;-62
2021/12/25 00:04:47;;;;;;;;;37.00;36.25;;;;;11.52;79.28;99744.75;5068887;28;45403;-60
2021/12/25 00:07:13;;;;;;;;;36.25;35.00;;;;;11.49;79.22;99745.84;5070994;27;45486;-59
2021/12/25 00:09:38;;;;;;;;;38.75;36.25;;;;;11.48;79.37;99754.81;5077737;27;45389;-58
2021/12/25 00:12:04;;;;;;;;;31.00;30.00;;;;;11.52;79.49;99750.94;5088903;27;46101;-61
2021/12/25 00:14:29;;;;;;;;;31.25;29.00;;;;;11.52;79.61;99750.09;5077268;27;45522;-59
2021/12/25 00:16:57;;;;;;;;;28.50;27.25;;;;;11.50;78.98;99741.38;5079838;27;45386;-66
2021/12/25 00:19:22;;;;;;;;;38.75;34.75;;;;;11.51;79.59;99733.25;5077136;27;45395;-60
2021/12/25 00:21:48;;;;;;;;;34.50;32.75;;;;;11.55;79.07;99733.88;5076445;28;46135;-60
2021/12/25 00:24:13;;;;;;;;;38.75;31.25;;;;;11.49;79.28;99727.22;5075639;27;46454;-62
2021/12/25 00:29:53;;;;;;;;;28.00;28.00;;;;;11.57;79.49;99715.97;5055552;28;45320;-61
2021/12/25 00:34:48;;;;;;;;;34.00;29.75;;;;;11.52;78.92;99707.47;5075941;28;45954;-60
2021/12/25 00:37:14;;;;;;;;;27.00;23.75;;;;;11.55;78.85;99703.75;5052209;28;45465;-62
2021/12/25 00:39:40;;;;;;;;;30.00;27.00;;;;;11.56;78.73;99700.97;5076033;28;45375;-60
2021/12/25 00:42:06;;;;;;;;;32.75;29.25;;;;;11.57;78.67;99700.00;5077831;27;45494;-60
2021/12/25 00:44:33;;;;;;;;;34.50;30.25;;;;;11.56;78.76;99695.63;5096560;27;45399;-61
2021/12/25 00:46:59;;;;;;;;;37.75;32.00;;;;;11.57;78.76;99696.47;5096628;27;45358;-62
2021/12/25 00:49:26;;;;;;;;;28.50;27.50;;;;;11.56;78.86;99682.31;5093693;27;45507;-53
2021/12/25 00:51:52;;;;;;;;;30.75;28.50;;;;;11.55;78.47;99693.94;5067852;27;45515;-58
2021/12/25 00:54:17;;;;;;;;;32.25;27.50;;;;;11.54;78.59;99689.56;5064845;27;45556;-62
2021/12/25 00:56:42;;;;;;;;;38.75;35.75;;;;;11.54;78.17;99702.91;5071547;28;45524;-60
2021/12/25 00:59:08;;;;;;;;;39.25;34.25;;;;;11.51;78.20;99703.13;5077146;27;45473;-62
2021/12/25 01:01:36;;;;;;;;;31.50;31.50;;;;;11.52;78.81;99710.16;5075103;27;46341;-61
2021/12/25 01:04:02;;;;;;;;;38.00;34.00;;;;;11.52;78.02;99708.34;5076085;27;45483;-60
2021/12/25 01:06:27;;;;;;;;;36.25;33.50;;;;;11.53;78.61;99703.84;5076169;27;45369;-61
2021/12/25 01:08:52;;;;;;;;;21.75;21.75;;;;;11.48;78.71;99698.88;5075495;28;45278;-62
2021/12/25 01:11:18;;;;;;;;;30.75;29.25;;;;;11.52;78.40;99718.13;5075000;28;46302;-61
2021/12/25 01:13:53;;;;;;;;;34.50;29.25;;;;;11.51;78.09;99711.13;5075326;27;45428;-53
2021/12/25 01:47:47;;;;;;;;;25.50;22.75;;;;;11.33;78.56;99728.41;5075543;27;45573;-57
2021/12/25 01:50:13;;;;;;;;;29.50;28.50;;;;;11.30;78.21;99724.19;5074469;28;45597;-61
2021/12/25 01:52:39;;;;;;;;;32.25;28.75;;;;;11.28;78.21;99726.09;5075293;28;45685;-56
2021/12/25 01:55:09;;;;;;;;;34.25;28.25;;;;;11.25;78.51;99726.34;5073524;28;46753;-60
2021/12/25 01:57:35;;;;;;;;;30.00;27.25;;;;;11.25;78.84;99729.00;5075244;28;45516;-61
2021/12/25 02:00:03;;;;;;;;;31.50;27.75;;;;;11.22;78.89;99730.06;5069978;28;45500;-57
2021/12/25 02:02:28;;;;;;;;;34.25;28.25;;;;;11.22;79.01;99727.41;5067898;28;45603;-55
2021/12/25 02:04:54;;;;;;;;;31.25;26.75;;;;;11.22;78.84;99738.06;5054178;28;45551;-62
2021/12/25 02:07:21;;;;;;;;;32.75;31.50;;;;;11.26;78.46;99730.69;5055954;28;45479;-61
2021/12/25 02:09:48;;;;;;;;;26.25;25.00;;;;;11.28;78.55;99736.75;5077408;28;45473;-58
2021/12/25 02:12:15;;;;;;;;;26.00;23.50;;;;;11.29;78.17;99732.28;5077575;28;45455;-55
2021/12/25 02:14:43;;;;;;;;;26.50;21.50;;;;;11.32;77.92;99737.38;5076031;28;45535;-60
2021/12/25 02:17:25;;;;;;;;;21.25;20.00;;;;;11.30;78.63;99728.66;5075131;28;45557;-55
2021/12/25 02:20:09;;;;;;;;;21.50;18.75;;;;;11.33;77.72;99739.06;5077301;28;45468;-60
2021/12/25 02:22:34;;;;;;;;;27.00;22.75;;;;;11.28;78.14;99731.44;5071667;28;46244;-59
2021/12/25 02:24:59;;;;;;;;;23.00;22.00;;;;;11.30;78.11;99731.31;5075902;28;45576;-55
2021/12/25 02:27:25;;;;;;;;;18.33;17.33;;;;;11.35;77.96;99731.84;5074226;28;45486;-57
2021/12/25 02:29:51;;;;;;;;;13.50;12.50;;;;;11.34;76.98;99733.66;5058590;28;45531;-56
2021/12/25 02:32:16;;;;;;;;;18.25;14.00;;;;;11.40;77.41;99735.00;5075211;27;46090;-56
2021/12/25 02:34:43;;;;;;;;;13.00;12.00;;;;;11.40;77.12;99737.69;5077057;28;45454;-57
2021/12/25 02:37:08;;;;;;;;;13.33;12.00;;;;;11.40;77.48;99721.69;5067780;28;45465;-57
2021/12/25 02:39:34;;;;;;;;;13.67;12.00;;;;;11.41;77.08;99724.25;5072853;28;45432;-54
2021/12/25 02:42:00;;;;;;;;;14.33;13.33;;;;;11.42;77.13;99733.09;5077498;28;46344;-57
2021/12/25 02:44:25;;;;;;;;;15.33;14.00;;;;;11.41;76.83;99728.72;5053412;28;45462;-62
2021/12/25 02:46:54;;;;;;;;;15.00;13.00;;;;;11.42;77.27;99727.75;5058595;28;45334;-58
2021/12/25 02:49:20;;;;;;;;;13.67;12.00;;;;;11.41;77.00;99726.06;5075510;28;45722;-59
2021/12/25 02:51:46;;;;;;;;;13.67;12.00;;;;;11.40;77.10;99729.69;5072428;28;45519;-59
2021/12/25 02:54:12;;;;;;;;;12.00;12.00;;;;;11.40;77.22;99729.69;5075182;28;45475;-61
2021/12/25 02:56:38;;;;;;;;;15.00;13.67;;;;;11.44;77.17;99736.47;5077115;27;45474;-58
2021/12/25 02:59:04;;;;;;;;;12.75;12.75;;;;;11.43;76.57;99730.31;5076040;27;45652;-59
2021/12/25 03:01:30;;;;;;;;;18.25;14.50;;;;;11.46;76.75;99723.94;5069835;28;45505;-57
2021/12/25 03:03:55;;;;;;;;;17.75;14.75;;;;;11.47;76.43;99726.47;5070971;28;45547;-59
2021/12/25 03:06:22;;;;;;;;;18.00;13.00;;;;;11.48;76.77;99724.66;5070124;28;45445;-56
2021/12/25 03:08:48;;;;;;;;;17.50;17.50;;;;;11.47;76.93;99725.63;5073320;28;45547;-57
2021/12/25 03:11:13;;;;;;;;;17.25;14.25;;;;;11.42;76.81;99717.97;5075371;28;45831;-57
2021/12/25 03:13:56;;;;;;;;;14.75;12.00;;;;;11.41;76.91;99710.09;5055219;28;45727;-59
2021/12/25 03:16:23;;;;;;;;;16.00;13.00;;;;;11.48;77.03;99720.19;5075805;28;45232;-56
2021/12/25 03:18:51;;;;;;;;;13.50;12.00;;;;;11.45;76.78;99715.06;5075159;27;45700;-55
2021/12/25 03:21:18;;;;;;;;;14.75;14.75;;;;;11.47;76.99;99715.81;5075859;28;45459;-57
2021/12/25 03:23:44;;;;;;;;;18.00;11.67;;;;;11.52;77.14;99724.31;5074568;27;45640;-57
2021/12/25 03:26:10;;;;;;;;;15.33;12.00;;;;;11.55;76.85;99720.56;5073446;28;46725;-57
2021/12/25 03:28:39;;;;;;;;;13.00;13.00;;;;;11.56;76.80;99719.59;5074614;28;45571;-57
2021/12/25 03:31:14;;;;;;;;;16.25;13.00;;;;;11.51;76.70;99701.31;5075404;28;46588;-58
2021/12/25 03:33:40;;;;;;;;;12.00;12.00;;;;;11.56;76.70;99721.41;5056166;28;45427;-57
2021/12/25 03:36:05;;;;;;;;;11.50;11.50;;;;;11.52;76.85;99712.81;5073295;28;45473;-58
2021/12/25 03:38:31;;;;;;;;;12.00;12.00;;;;;11.55;76.50;99720.56;5074329;28;45538;-60
2021/12/25 03:40:57;;;;;;;;;13.33;11.33;;;;;11.56;76.94;99724.94;5073690;28;46644;-57
2021/12/25 03:43:23;;;;;;;;;16.50;14.50;;;;;11.51;76.58;99713.78;5069696;28;45613;-62
2021/12/25 03:45:49;;;;;;;;;14.75;12.25;;;;;11.60;76.54;99720.25;5074763;28;45484;-57
2021/12/25 03:48:31;;;;;;;;;15.75;12.50;;;;;11.59;77.13;99724.72;5074685;28;45522;-62
2021/12/25 03:59:04;;;;;;;;;15.00;11.67;;;;;11.62;77.04;99734.28;5074823;27;45429;-58
2021/12/25 04:06:46;;;;;;;;;11.25;11.25;;;;;11.60;76.84;99731.75;5074832;28;45487;-61
2021/12/25 04:09:28;;;;;;;;;9.00;9.00;;;;;11.59;77.18;99732.72;5073386;28;45461;-59
2021/12/25 04:11:55;;;;;;;;;15.00;12.33;;;;;11.55;77.42;99723.22;5074437;28;45545;-58
2021/12/25 04:14:21;;;;;;;;;21.00;15.33;;;;;11.62;76.59;99740.47;5072461;28;45486;-60
2021/12/25 04:16:46;;;;;;;;;14.33;14.00;;;;;11.60;76.75;99733.56;5072829;28;45469;-62
2021/12/25 04:19:12;;;;;;;;;18.67;14.00;;;;;11.62;76.86;99735.13;5075033;28;45602;-59
2021/12/25 04:21:46;;;;;;;;;16.33;12.00;;;;;11.65;77.13;99737.56;5074846;27;45506;-56
2021/12/25 04:24:12;;;;;;;;;20.33;16.67;;;;;11.63;76.81;99726.19;5071724;28;45493;-58
2021/12/25 04:26:40;;;;;;;;;19.33;16.00;;;;;11.65;76.57;99728.72;5073279;28;45900;-62
2021/12/25 04:29:20;;;;;;;;;18.67;17.33;;;;;11.68;76.62;99734.69;5075200;28;45493;-62
2021/12/25 04:42:52;;;;;;;;;17.67;17.00;;;;;11.64;76.61;99733.22;5072467;28;45370;-61
2021/12/25 05:01:44;;;;;;;;;18.33;15.00;;;;;11.60;77.21;99737.06;5073916;28;45452;-60
2021/12/25 05:02:00;;;;;;;;;21.33;15.00;;;;;11.57;77.87;99721.28;5070706;28;45624;-55
2021/12/25 05:04:41;;;;;;;;;16.75;16.25;;;;;11.58;78.05;99733.66;5074810;27;45514;-59
2021/12/25 05:07:07;;;;;;;;;20.33;17.33;;;;;11.55;78.39;99739.22;5077553;28;45393;-56
2021/12/25 05:09:32;;;;;;;;;14.00;12.00;;;;;11.49;77.89;99734.34;5079509;28;45478;-58
2021/12/25 05:11:57;;;;;;;;;19.00;17.00;;;;;11.51;78.79;99745.72;5078383;28;47102;-56
2021/12/25 05:14:23;;;;;;;;;20.50;17.00;;;;;11.52;78.88;99744.75;5078957;28;45379;-56
2021/12/25 05:16:49;;;;;;;;;18.75;15.25;;;;;11.48;78.19;99744.16;5080750;28;45513;-55
2021/12/25 05:19:14;;;;;;;;;18.25;17.25;;;;;11.39;78.97;99739.50;5062923;28;45288;-57
2021/12/25 05:21:40;;;;;;;;;20.25;18.00;;;;;11.49;78.61;99745.00;5082391;28;45644;-58
2021/12/25 05:24:06;;;;;;;;;20.50;16.50;;;;;11.49;78.61;99740.53;5078718;27;46020;-61
2021/12/25 05:26:32;;;;;;;;;22.75;19.75;;;;;11.40;78.75;99735.84;5054713;28;46574;-59
2021/12/25 05:28:59;;;;;;;;;17.50;17.00;;;;;11.48;78.61;99743.31;5075755;28;45525;-57
2021/12/25 05:31:27;;;;;;;;;18.25;14.00;;;;;11.49;79.03;99753.84;5079309;27;45525;-59
2021/12/25 05:33:54;;;;;;;;;17.33;14.00;;;;;11.50;78.72;99746.69;5079359;28;46232;-57
2021/12/25 05:36:19;;;;;;;;;20.75;15.25;;;;;11.51;79.05;99748.41;5078480;27;45323;-60
2021/12/25 05:38:45;;;;;;;;;17.33;15.33;;;;;11.52;78.70;99744.75;5079432;28;45758;-62
2021/12/25 05:41:11;;;;;;;;;19.00;11.00;;;;;11.51;78.49;99740.41;5062340;28;45675;-61
2021/12/25 05:43:37;;;;;;;;;20.00;15.25;;;;;11.51;78.58;99748.41;5079129;28;45558;-60
2021/12/25 05:46:03;;;;;;;;;19.00;16.33;;;;;11.55;78.58;99749.00;5079321;27;45593;-63
2021/12/25 05:48:29;;;;;;;;;14.00;9.67;;;;;11.56;78.90;99743.56;5061840;28;45387;-62
2021/12/25 05:50:54;;;;;;;;;19.00;17.75;;;;;11.57;78.33;99747.06;5061388;28;45530;-56
2021/12/25 05:53:20;;;;;;;;;17.33;14.00;;;;;11.52;78.25;99734.13;5079990;28;45718;-58
2021/12/25 05:55:45;;;;;;;;;20.50;14.25;;;;;11.57;78.51;99747.94;5053508;28;45341;-60
2021/12/25 05:58:10;;;;;;;;;14.00;14.00;;;;;11.60;78.24;99753.06;5080820;28;45453;-57
2021/12/25 06:00:37;;;;;;;;;13.00;13.00;;;;;11.62;78.19;99747.63;5077944;28;45497;-55
2021/12/25 06:03:04;;;;;;;;;12.33;12.33;;;;;11.62;77.94;99753.78;5080251;28;45379;-56
2021/12/25 06:05:30;;;;;;;;;13.33;13.33;;;;;11.59;78.70;99754.03;5076267;28;45282;-59
2021/12/25 06:07:55;;;;;;;;;15.00;15.00;;;;;11.58;78.78;99748.78;5080284;28;45266;-59
2021/12/25 06:10:21;;;;;;;;;17.00;14.00;;;;;11.58;78.93;99746.13;5078578;28;45412;-55
2021/12/25 06:12:48;;;;;;;;;18.00;16.00;;;;;11.60;79.06;99747.72;5077994;28;46283;-58
2021/12/25 06:15:18;;;;;;;;;18.75;14.25;;;;;11.56;78.89;99748.91;5054324;28;45483;-58
2021/12/25 06:17:43;;;;;;;;;15.67;14.00;;;;;11.60;79.02;99752.19;5076953;28;45255;-61
2021/12/25 06:20:09;;;;;;;;;18.00;14.00;;;;;11.59;78.73;99751.34;5076166;28;45315;-58
2021/12/25 06:22:35;;;;;;;;;19.33;16.00;;;;;11.60;78.83;99752.19;5052322;28;47608;-57
2021/12/25 06:25:00;;;;;;;;;17.67;11.67;;;;;11.58;78.68;99748.78;5057214;27;45410;-55
2021/12/25 06:27:26;;;;;;;;;14.00;12.67;;;;;11.47;78.86;99758.44;5075299;28;45537;-56
2021/12/25 06:29:52;;;;;;;;;19.00;13.67;;;;;11.48;78.87;99759.28;5058688;28;45493;-61
2021/12/25 06:32:18;;;;;;;;;19.00;13.00;;;;;11.48;78.84;99754.81;5075609;27;46680;-61
2021/12/25 06:34:44;;;;;;;;;12.00;12.00;;;;;11.52;79.15;99763.41;5057783;28;45897;-63
2021/12/25 06:37:10;;;;;;;;;17.25;13.00;;;;;11.51;79.00;99769.69;5070419;28;45492;-65
2021/12/25 06:39:36;;;;;;;;;16.25;13.75;;;;;11.49;78.57;99768.97;5076999;28;46052;-60
2021/12/25 06:42:03;;;;;;;;;18.33;13.00;;;;;11.53;78.50;99773.09;5076429;28;46930;-60
2021/12/25 06:44:28;;;;;;;;;13.00;13.00;;;;;11.53;78.82;99768.63;5075799;27;45330;-61
2021/12/25 06:46:55;;;;;;;;;18.25;17.25;;;;;11.53;78.87;99760.63;5063603;28;45329;-58
2021/12/25 06:49:22;;;;;;;;;19.50;14.00;;;;;11.58;78.73;99775.41;5074772;28;45553;-56
2021/12/25 06:51:48;;;;;;;;;21.25;17.50;;;;;11.57;79.33;99765.72;5070875;28;46055;-59
2021/12/25 06:54:14;;;;;;;;;21.67;13.00;;;;;11.59;79.40;99772.66;5075178;27;45564;-58
2021/12/25 06:56:40;;;;;;;;;19.00;16.25;;;;;11.88;80.80;99767.03;5074641;28;45635;-56
2021/12/25 06:59:05;;;;;;;;;13.67;13.67;;;;;11.72;79.25;99768.13;5073684;27;45524;-62
2021/12/25 07:01:31;;;;;;;;;13.75;12.50;;;;;11.65;79.16;99766.88;5054305;28;47191;-65
2021/12/25 07:03:56;;;;;;;;;15.00;14.75;;;;;11.60;79.06;99762.84;5074191;27;45541;-62
2021/12/25 07:06:22;;;;;;;;;16.25;14.75;;;;;11.60;79.25;99776.16;5075557;28;45508;-63
2021/12/25 07:08:48;;;;;;;;;14.00;13.00;;;;;11.55;79.63;99770.31;5072368;27;45284;-58
2021/12/25 07:11:15;;;;;;;;;12.67;12.67;;;;;11.54;79.79;99785.44;5074012;27;46498;-61
2021/12/25 07:13:45;;;;;;;;;14.67;14.67;;;;;11.51;80.10;99780.34;5075080;28;45525;-58
2021/12/25 07:16:11;;;;;;;;;17.33;13.00;;;;;11.51;79.60;99780.34;5072993;27;45511;-61
2021/12/25 07:18:37;;;;;;;;;15.75;14.25;;;;;11.48;79.59;99780.56;5068124;28;46066;-60
2021/12/25 07:21:04;;;;;;;;;17.00;15.50;;;;;11.50;80.04;99778.66;5072462;28;45540;-59
2021/12/25 07:23:30;;;;;;;;;15.25;15.25;;;;;11.49;79.18;99776.94;5073480;28;45367;-61
2021/12/25 07:25:55;;;;;;;;;20.00;15.25;;;;;11.50;79.23;99781.31;5075720;28;45403;-57
2021/12/25 07:28:20;;;;;;;;;17.25;12.50;;;;;11.52;79.79;99782.03;5072461;27;45483;-58
2021/12/25 07:30:47;;;;;;;;;20.33;15.33;;;;;11.49;79.07;99782.28;5072704;28;45445;-64
2021/12/25 07:33:12;;;;;;;;;19.67;17.33;;;;;11.52;79.59;99779.38;5074377;28;45602;-63
2021/12/25 07:35:38;;;;;;;;;17.00;14.67;;;;;11.52;79.29;99782.03;5073606;28;45457;-59
2021/12/25 07:38:04;;;;;;;;;16.00;14.00;;;;;11.53;79.21;99778.41;5074424;28;45469;-56
2021/12/25 07:40:29;;;;;;;;;14.00;12.75;;;;;11.54;79.52;99780.13;5075392;28;45616;-59
2021/12/25 07:42:55;;;;;;;;;21.00;15.25;;;;;11.52;79.29;99771.41;5072875;27;45469;-58
2021/12/25 07:45:21;;;;;;;;;18.00;16.25;;;;;11.55;79.60;99768.50;5072472;27;45500;-61
2021/12/25 07:47:56;;;;;;;;;18.75;17.50;;;;;11.51;79.11;99769.69;5073318;28;45667;-58
2021/12/25 07:50:21;;;;;;;;;20.00;16.50;;;;;11.51;78.90;99775.03;5074092;28;45223;-59
2021/12/25 07:52:47;;;;;;;;;21.50;17.50;;;;;11.50;79.27;99781.31;5074730;28;45486;-57
2021/12/25 07:55:12;;;;;;;;;13.25;12.25;;;;;11.50;79.43;99784.81;5053867;28;45258;-62
2021/12/25 07:57:38;;;;;;;;;19.50;18.00;;;;;11.49;79.13;99772.47;5074219;28;45637;-59
2021/12/25 08:00:07;;;;;;;;;18.50;18.00;;;;;11.53;79.52;99784.59;5071374;28;45993;-58
2021/12/25 08:02:32;;;;;;;;;22.25;19.00;;;;;11.46;79.02;99777.19;5067775;28;45503;-63
2021/12/25 08:04:58;;;;;;;;;19.75;18.00;;;;;11.53;78.84;99784.59;5053486;28;45547;-60
2021/12/25 08:07:23;;;;;;;;;18.25;16.50;;;;;11.57;78.78;99795.00;5077484;27;45495;-59
2021/12/25 08:09:48;;;;;;;;;20.25;19.75;;;;;11.56;78.55;99788.84;5076090;28;45536;-63
2021/12/25 08:12:14;;;;;;;;;20.33;18.67;;;;;11.57;79.19;99785.22;5074670;27;45552;-64
2021/12/25 08:14:39;;;;;;;;;17.67;16.67;;;;;11.55;78.75;99789.81;5071756;28;46012;-59
2021/12/25 08:17:05;;;;;;;;;21.50;18.50;;;;;11.54;79.17;99801.41;5073432;27;46550;-61
2021/12/25 08:19:30;;;;;;;;;17.67;17.67;;;;;11.60;78.49;99794.81;5072846;28;45691;-58
2021/12/25 08:21:56;;;;;;;;;19.75;18.00;;;;;11.59;78.44;99793.97;5066726;28;45519;-58
2021/12/25 08:24:22;;;;;;;;;19.25;17.75;;;;;11.59;78.09;99799.28;5070313;28;46007;-61
2021/12/25 08:26:48;;;;;;;;;18.00;14.00;;;;;11.58;78.58;99789.56;5074330;28;45549;-59
2021/12/25 08:29:14;;;;;;;;;17.75;17.75;;;;;11.49;78.46;99776.94;5071875;28;45676;-60
2021/12/25 08:31:43;;;;;;;;;23.33;19.00;;;;;11.49;78.12;99787.59;5075060;28;45232;-61
2021/12/25 08:34:10;;;;;;;;;22.00;19.67;;;;;11.58;77.95;99799.38;5065950;27;45809;-60
2021/12/25 08:36:36;;;;;;;;;28.00;22.00;;;;;11.56;78.19;99799.50;5030264;28;46084;-57
2021/12/25 08:39:06;;;;;;;;;23.33;19.67;;;;;11.58;78.01;99791.38;5065898;28;48095;-59
2021/12/25 08:41:32;;;;;;;;;23.00;20.00;;;;;11.57;78.23;99790.53;5079562;27;45710;-59
2021/12/25 08:44:05;;;;;;;;;24.33;21.33;;;;;11.66;77.69;99800.53;5074887;27;45550;-59
2021/12/25 08:46:50;;;;;;;;;18.00;15.33;;;;;11.62;77.36;99796.41;5066783;28;47233;-58
2021/12/25 08:49:16;;;;;;;;;22.75;19.00;;;;;11.62;77.71;99803.53;5071422;27;45461;-55
2021/12/25 08:51:43;;;;;;;;;21.33;18.33;;;;;11.66;78.05;99805.84;5092045;27;45489;-57
2021/12/25 08:54:10;;;;;;;;;24.00;18.75;;;;;11.68;77.73;99803.94;5069500;27;45369;-62
2021/12/25 08:56:35;;;;;;;;;25.67;17.67;;;;;11.61;77.67;99800.03;5092194;27;45324;-60
2021/12/25 08:59:01;;;;;;;;;19.25;18.50;;;;;11.70;77.32;99812.66;5058073;27;45525;-60
2021/12/25 09:01:26;;;;;;;;;15.75;12.25;;;;;11.65;77.23;99798.81;5060137;28;45371;-62
2021/12/25 09:03:52;;;;;;;;;20.25;17.25;;;;;11.66;77.72;99802.34;5069761;27;45491;-54
2021/12/25 09:06:18;;;;;;;;;20.50;17.00;;;;;11.70;77.35;99806.47;5068055;27;45688;-59
2021/12/25 09:08:43;;;;;;;;;18.75;18.75;;;;;11.71;77.14;99809.03;5074432;27;45236;-58
2021/12/25 09:11:08;;;;;;;;;21.50;19.50;;;;;11.68;77.11;99803.94;5055726;28;45639;-59
2021/12/25 09:13:34;;;;;;;;;25.50;18.75;;;;;11.71;77.16;99814.34;5073786;27;45506;-60
2021/12/25 09:15:59;;;;;;;;;17.00;17.00;;;;;11.74;77.46;99813.28;5074256;27;45664;-62
2021/12/25 09:18:25;;;;;;;;;18.25;15.25;;;;;11.72;77.06;99810.75;5073355;27;46119;-61
2021/12/25 09:20:50;;;;;;;;;22.75;17.25;;;;;11.76;76.57;99814.88;5073322;27;45502;-60
2021/12/25 09:23:16;;;;;;;;;19.25;18.50;;;;;11.74;76.76;99818.63;5072983;27;45476;-62
2021/12/25 09:25:41;;;;;;;;;14.00;13.75;;;;;11.79;77.05;99822.66;5048252;28;45590;-64
2021/12/25 09:28:07;;;;;;;;;26.25;17.50;;;;;11.75;76.56;99810.53;5071436;27;45421;-58
2021/12/25 09:30:33;;;;;;;;;19.75;16.75;;;;;11.76;77.08;99816.69;5079554;27;45499;-54
2021/12/25 09:32:59;;;;;;;;;21.00;17.25;;;;;11.79;76.74;99821.81;5078679;27;45398;-57
2021/12/25 09:35:24;;;;;;;;;14.00;14.00;;;;;11.83;76.29;99828.63;5067076;27;45657;-57
2021/12/25 09:37:50;;;;;;;;;18.50;17.75;;;;;11.82;76.08;99827.78;5072827;27;46949;-58
2021/12/25 09:40:15;;;;;;;;;18.00;18.00;;;;;11.84;76.03;99829.47;5050168;28;45454;-57
2021/12/25 09:42:42;;;;;;;;;16.00;14.33;;;;;11.84;76.60;99830.31;5072789;28;45469;-56
2021/12/25 09:45:10;;;;;;;;;22.75;18.75;;;;;11.86;76.61;99827.56;5071236;27;45552;-55
2021/12/25 09:47:35;;;;;;;;;19.75;18.00;;;;;11.90;76.33;99831.69;5076274;27;46288;-60
2021/12/25 09:50:01;;;;;;;;;24.00;18.00;;;;;11.91;76.14;99836.06;5076102;28;45448;-56
2021/12/25 09:52:27;;;;;;;;;17.75;17.75;;;;;11.90;75.82;99839.69;5073620;27;45591;-59
2021/12/25 09:54:52;;;;;;;;;21.25;18.50;;;;;11.94;76.17;99846.47;5052680;28;45649;-58
2021/12/25 09:57:18;;;;;;;;;17.75;16.75;;;;;11.98;76.18;99847.94;5072186;27;45482;-54
2021/12/25 09:59:43;;;;;;;;;19.67;18.33;;;;;11.97;75.63;99840.94;5056389;28;45478;-50
2021/12/25 10:02:13;;;;;;;;;17.33;13.00;;;;;11.95;75.79;99834.88;5050471;27;45719;-52
2021/12/25 10:04:42;;;;;;;;;15.00;14.00;;;;;11.96;75.47;99836.56;5077850;27;45506;-56
2021/12/25 10:07:18;;;;;;;;;15.25;15.25;;;;;11.97;75.78;99840.94;5089145;27;45531;-55
2021/12/25 10:10:07;;;;;;;;;14.00;14.00;;;;;12.01;75.66;99837.94;5086702;27;45317;-59
2021/12/25 10:12:42;;;;;;;;;20.00;18.67;;;;;12.05;75.62;99827.91;5078906;27;45529;-56
2021/12/25 10:15:13;;;;;;;;;20.33;17.67;;;;;12.07;75.13;99847.28;5088313;27;45468;-58
2021/12/25 10:17:51;;;;;;;;;17.33;16.00;;;;;12.09;75.19;99829.34;5065815;27;46267;-58
2021/12/25 10:20:22;;;;;;;;;21.00;18.33;;;;;12.13;75.26;99833.53;5074873;27;45430;-60
2021/12/25 10:22:58;;;;;;;;;16.00;14.67;;;;;12.19;74.79;99830.38;5059592;28;45512;-55
2021/12/25 10:25:32;;;;;;;;;22.67;18.67;;;;;12.17;75.10;99821.66;5085861;27;45626;-58
2021/12/25 10:28:00;;;;;;;;;18.67;17.67;;;;;12.21;74.59;99823.13;5076345;27;45663;-57
2021/12/25 10:30:25;;;;;;;;;19.00;14.33;;;;;12.23;75.06;99818.50;5081255;27;45504;-52
2021/12/25 10:32:57;;;;;;;;;30.67;25.00;;;;;12.31;74.70;99813.47;5087677;27;45551;-53
2021/12/25 10:35:27;;;;;;;;;22.67;19.00;;;;;12.39;74.07;99820.91;5067680;27;45371;-56
2021/12/25 10:37:54;;;;;;;;;14.33;14.00;;;;;12.45;74.26;99819.56;5087383;27;46876;-55
2021/12/25 10:40:27;;;;;;;;;16.33;14.00;;;;;12.40;73.45;99823.44;5073272;27;45251;-53
2021/12/25 10:42:58;;;;;;;;;14.67;14.67;;;;;12.46;73.47;99818.59;5088775;27;45954;-60
2021/12/25 10:45:26;;;;;;;;;18.67;14.33;;;;;12.38;73.38;99797.88;5054741;28;45874;-56
2021/12/25 10:48:07;;;;;;;;;18.67;18.67;;;;;12.57;73.22;99823.97;5078982;27;45520;-61
2021/12/25 10:50:39;;;;;;;;;16.67;15.00;;;;;12.59;73.20;99822.88;5064012;27;45402;-51
2021/12/25 10:53:25;;;;;;;;;17.00;17.00;;;;;12.63;73.40;99815.47;5074206;27;45497;-57
2021/12/25 10:55:52;;;;;;;;;14.67;14.67;;;;;12.62;72.86;99808.44;5068900;27;45447;-57
2021/12/25 10:58:24;;;;;;;;;18.33;14.00;;;;;12.58;73.33;99802.50;5076883;27;46601;-56
2021/12/25 11:00:54;;;;;;;;;17.67;15.00;;;;;12.55;72.99;99796.56;5082954;27;45471;-56
2021/12/25 11:03:30;;;;;;;;;14.00;10.00;;;;;12.52;72.99;99803.00;5087173;27;47113;-58
2021/12/25 11:06:09;;;;;;;;;14.67;13.33;;;;;12.48;73.06;99796.19;5075566;27;45469;-60
2021/12/25 11:08:37;;;;;;;;;9.67;9.67;;;;;12.53;73.20;99798.50;5072452;27;46698;-52
2021/12/25 11:11:02;;;;;;;;;13.67;13.00;;;;;12.59;72.94;99790.03;5065499;27;45422;-48
2021/12/25 11:13:27;;;;;;;;;7.67;4.33;;;;;12.60;72.47;99792.56;5055169;28;45475;-58
2021/12/25 11:16:03;;;;;;;;;15.00;14.00;;;;;12.56;72.90;99779.59;5087839;27;45424;-57
2021/12/25 11:18:29;;;;;;;;;14.33;14.33;;;;;12.63;72.42;99780.81;5047401;28;46770;-58
2021/12/25 11:20:55;;;;;;;;;18.67;15.00;;;;;12.63;72.97;99786.13;5082200;27;45530;-55
2021/12/25 11:23:21;;;;;;;;;13.67;12.33;;;;;12.58;72.60;99777.66;5083267;27;45459;-55
2021/12/25 11:25:46;;;;;;;;;14.00;10.00;;;;;12.61;72.63;99798.75;5067103;27;45660;-55
2021/12/25 11:28:18;;;;;;;;;14.33;11.67;;;;;12.61;72.06;99783.59;5092886;27;45563;-57
2021/12/25 11:30:46;;;;;;;;;12.67;12.67;;;;;12.63;73.14;99781.69;5047047;27;45655;-53
2021/12/25 11:33:13;;;;;;;;;13.00;13.00;;;;;12.70;72.37;99774.88;5057126;27;45511;-59
2021/12/25 11:35:39;;;;;;;;;18.00;15.00;;;;;12.75;72.25;99777.19;5072356;27;45473;-58
2021/12/25 11:38:07;;;;;;;;;21.00;15.00;;;;;12.79;72.05;99770.66;5075338;27;45646;-58
2021/12/25 11:40:38;;;;;;;;;14.67;12.67;;;;;12.82;72.19;99770.41;5067215;27;45512;-54
2021/12/25 11:43:04;;;;;;;;;14.00;14.00;;;;;12.86;72.00;99771.00;5071993;27;45473;-59
2021/12/25 11:45:36;;;;;;;;;15.33;13.00;;;;;12.89;71.48;99768.97;5055230;28;45453;-58
2021/12/25 11:48:14;;;;;;;;;13.33;12.00;;;;;12.89;71.51;99766.31;5089099;27;45529;-61
2021/12/25 11:50:42;;;;;;;;;15.67;14.00;;;;;12.92;71.46;99760.72;5075058;27;45464;-56
2021/12/25 11:53:16;;;;;;;;;15.00;13.33;;;;;12.96;71.58;99762.16;5079583;27;45442;-60
2021/12/25 11:58:40;;;;;;;;;14.67;13.33;;;;;12.99;71.17;99759.25;5076000;28;46018;-56
2021/12/25 12:01:24;;;;;;;;;12.67;12.67;;;;;12.96;71.28;99761.31;5066869;28;45391;-58
2021/12/25 12:04:12;;;;;;;;;14.67;13.00;;;;;12.91;70.84;99761.69;5076984;28;45517;-58
2021/12/25 12:06:43;;;;;;;;;15.00;13.33;;;;;12.92;71.59;99759.88;5077004;28;45526;-58
2021/12/25 12:09:10;;;;;;;;;15.33;13.33;;;;;12.91;71.30;99758.19;5076217;28;47605;-56
2021/12/25 12:11:40;;;;;;;;;15.00;13.67;;;;;12.95;71.65;99743.63;5074732;28;45414;-58
2021/12/25 12:14:21;;;;;;;;;9.67;8.67;;;;;12.99;70.71;99758.41;5076768;28;45469;-59
2021/12/25 12:16:51;;;;;;;;;15.33;11.67;;;;;12.98;70.68;99754.88;5076891;28;45375;-58
2021/12/25 12:22:33;;;;;;;;;21.00;15.00;;;;;12.92;71.41;99758.06;5076885;28;45258;-60
2021/12/25 12:25:29;;;;;;;;;15.67;15.33;;;;;12.90;71.49;99757.34;5077182;28;45394;-56
2021/12/25 12:27:58;;;;;;;;;16.67;14.00;;;;;12.88;71.05;99759.25;5076626;28;45436;-59
2021/12/25 12:30:45;;;;;;;;;16.00;13.67;;;;;12.88;71.07;99759.25;5076040;28;45425;-59
2021/12/25 12:33:17;;;;;;;;;13.67;13.33;;;;;12.92;71.16;99758.06;5066638;27;45483;-56
2021/12/25 12:35:46;;;;;;;;;15.33;11.67;;;;;12.94;70.83;99748.09;5070564;28;45420;-58
2021/12/25 12:38:36;;;;;;;;;19.33;14.00;;;;;12.98;71.67;99749.56;5075926;27;45322;-57
2021/12/25 12:41:33;;;;;;;;;13.33;13.33;;;;;13.01;71.31;99740.44;5058048;28;47631;-57
2021/12/25 12:44:04;;;;;;;;;16.67;13.33;;;;;13.06;70.88;99738.28;5075397;28;45430;-59